Terminal Aerodrome Forecast
Issued by NWS Twin Cities, MN

Home | Current Version | Previous Version | Graphics & Text | Print | Product List | Glossary On
Versions: 1 2 3 4 5 6 7 8 9 10 11 12 13 14 15 16 17 18 19
000
FTUS43 KMPX 251730
TAFSTC
TAF
KSTC 251730Z 2518/2618 07004KT P6SM BKN020
      TEMPO 2518/2522 SCT020
     FM252200 VRB03KT P6SM BKN018
     FM260200 17004KT P6SM OVC015
     FM260800 19010KT 6SM -SN BR OVC012 PROB30 2609/2613 4SM -FZDZ
      BR OVC008
     FM261400 27007KT 6SM BR OVC015=

USA.gov is the U.S. government's official web portal to all federal, state and local government web resources and services.